createdAt,value
2023-04-07T00:01:04.330Z,8.91
2023-04-07T00:03:31.893Z,8.89
2023-04-07T00:05:59.482Z,8.85
2023-04-07T00:08:27.226Z,8.87
2023-04-07T00:10:54.657Z,8.86
2023-04-07T00:13:22.088Z,8.81
2023-04-07T00:15:49.510Z,8.89
2023-04-07T00:18:16.920Z,8.83
2023-04-07T00:20:44.348Z,8.76
2023-04-07T00:23:11.854Z,8.80
2023-04-07T00:25:39.311Z,8.85
2023-04-07T00:28:06.774Z,8.83
2023-04-07T00:30:34.168Z,8.87
2023-04-07T00:33:01.644Z,8.87
2023-04-07T00:35:29.144Z,8.97
2023-04-07T00:37:57.000Z,8.93
2023-04-07T00:40:24.473Z,8.93
2023-04-07T00:42:51.882Z,8.94
2023-04-07T00:45:19.288Z,8.98
2023-04-07T00:47:46.884Z,8.95
2023-04-07T00:50:14.442Z,8.91
2023-04-07T00:52:42.429Z,9.16
2023-04-07T00:55:10.067Z,8.93
2023-04-07T00:57:37.707Z,9.09
2023-04-07T01:00:06.630Z,9.02
2023-04-07T01:02:57.279Z,9.04
2023-04-07T01:05:29.317Z,9.05
2023-04-07T01:07:59.807Z,8.99
2023-04-07T01:10:29.449Z,8.95
2023-04-07T01:13:06.843Z,8.86
2023-04-07T01:15:35.462Z,9.02
2023-04-07T01:18:14.335Z,9.12
2023-04-07T01:20:44.667Z,9.06
2023-04-07T01:23:18.124Z,8.95
2023-04-07T01:25:48.290Z,8.85
2023-04-07T01:28:35.923Z,9.02
2023-04-07T01:31:05.817Z,9.00
2023-04-07T01:33:34.963Z,9.01
2023-04-07T01:36:04.318Z,9.26
2023-04-07T01:38:32.363Z,9.17
2023-04-07T01:41:00.356Z,8.91
2023-04-07T01:43:28.720Z,9.00
2023-04-07T01:45:57.467Z,9.04
2023-04-07T01:48:25.869Z,8.95
2023-04-07T01:50:53.635Z,9.02
2023-04-07T01:53:21.216Z,9.15
2023-04-07T01:55:48.990Z,9.12
2023-04-07T01:58:16.424Z,8.94
2023-04-07T02:00:43.878Z,9.10
2023-04-07T02:03:20.816Z,8.94
2023-04-07T02:05:49.352Z,8.82
2023-04-07T02:08:18.459Z,8.93
2023-04-07T02:10:48.238Z,9.00
2023-04-07T02:13:17.186Z,8.99
2023-04-07T02:15:45.302Z,8.94
2023-04-07T02:18:14.660Z,8.90
2023-04-07T02:20:43.589Z,9.24
2023-04-07T02:23:11.375Z,9.00
2023-04-07T02:25:39.266Z,9.32
2023-04-07T02:28:07.020Z,9.02
2023-04-07T02:30:34.687Z,8.94
2023-04-07T02:33:02.252Z,8.86
2023-04-07T02:35:29.736Z,9.10
2023-04-07T02:37:57.113Z,9.00
2023-04-07T02:40:24.498Z,9.01
2023-04-07T02:42:51.953Z,9.10
2023-04-07T02:45:19.414Z,8.86
2023-04-07T02:47:46.820Z,8.95
2023-04-07T02:50:14.328Z,9.02
2023-04-07T02:52:41.776Z,8.87
2023-04-07T02:55:09.567Z,8.89
2023-04-07T02:57:36.954Z,8.99
2023-04-07T03:00:04.473Z,8.99
2023-04-07T03:02:32.046Z,8.96
2023-04-07T03:04:59.472Z,8.96
2023-04-07T03:07:26.903Z,9.00
2023-04-07T03:09:54.252Z,8.94
2023-04-07T03:12:21.696Z,8.96
2023-04-07T03:14:49.126Z,8.97
2023-04-07T03:17:16.582Z,8.94
2023-04-07T03:19:44.055Z,8.95
2023-04-07T03:22:11.423Z,9.06
2023-04-07T03:24:39.561Z,9.13
2023-04-07T03:27:06.969Z,9.09
2023-04-07T03:29:34.447Z,9.06
2023-04-07T03:32:01.900Z,9.02
2023-04-07T03:34:29.273Z,9.06
2023-04-07T03:36:56.706Z,9.03
2023-04-07T03:39:24.143Z,9.07
2023-04-07T03:41:51.711Z,9.02
2023-04-07T03:44:19.094Z,9.14
2023-04-07T03:46:48.258Z,8.98
2023-04-07T03:49:15.763Z,8.97
2023-04-07T03:51:43.253Z,9.09
2023-04-07T03:54:10.659Z,9.07
2023-04-07T03:56:38.370Z,9.15
2023-04-07T03:59:05.797Z,9.12
2023-04-07T04:01:33.460Z,9.05
2023-04-07T04:04:01.001Z,8.97
2023-04-07T04:06:28.688Z,9.11
2023-04-07T04:08:56.073Z,9.07
2023-04-07T04:11:23.759Z,9.14
2023-04-07T04:13:51.686Z,9.27
2023-04-07T04:16:19.337Z,9.26
2023-04-07T04:18:46.863Z,9.35
2023-04-07T04:21:14.286Z,9.23
2023-04-07T04:23:41.740Z,9.21
2023-04-07T04:26:09.160Z,9.04
2023-04-07T04:28:36.963Z,8.79
2023-04-07T04:31:05.490Z,8.90
2023-04-07T04:33:32.949Z,8.83
2023-04-07T04:36:00.310Z,8.77
2023-04-07T04:38:27.791Z,8.60
2023-04-07T04:40:55.272Z,8.68
2023-04-07T04:43:22.689Z,8.73
2023-04-07T04:45:50.318Z,8.59
2023-04-07T04:48:17.900Z,8.67
2023-04-07T04:50:45.290Z,8.86
2023-04-07T04:53:12.708Z,8.84
2023-04-07T04:55:40.888Z,8.94
2023-04-07T04:58:08.262Z,9.04
2023-04-07T05:00:35.764Z,9.10
2023-04-07T05:03:04.321Z,9.21
2023-04-07T05:05:31.883Z,9.11
2023-04-07T05:07:59.268Z,8.96
2023-04-07T05:10:26.643Z,8.97
2023-04-07T05:12:54.099Z,9.09
2023-04-07T05:15:21.530Z,8.97
2023-04-07T05:17:50.652Z,8.96
2023-04-07T05:20:18.261Z,8.93
2023-04-07T05:22:45.708Z,9.00
2023-04-07T05:25:13.161Z,8.92
2023-04-07T05:27:40.989Z,9.03
2023-04-07T05:30:08.741Z,8.94
2023-04-07T05:32:36.181Z,8.88
2023-04-07T05:35:03.561Z,8.83
2023-04-07T05:37:31.100Z,8.89
2023-04-07T05:39:58.500Z,8.89
2023-04-07T05:42:26.786Z,8.97
2023-04-07T05:44:54.337Z,8.98
2023-04-07T05:47:21.855Z,9.07
2023-04-07T05:49:49.322Z,9.17
2023-04-07T05:52:16.745Z,9.19
2023-04-07T05:54:44.269Z,8.93
2023-04-07T05:57:11.748Z,9.13
2023-04-07T05:59:39.210Z,9.06
2023-04-07T06:02:06.685Z,8.93
2023-04-07T06:04:35.409Z,8.94
2023-04-07T06:07:03.206Z,9.00
2023-04-07T06:09:30.674Z,8.82
2023-04-07T06:11:58.255Z,8.86
2023-04-07T06:14:27.099Z,8.89
2023-04-07T06:16:54.635Z,8.90
2023-04-07T06:19:22.068Z,8.91
2023-04-07T06:21:49.556Z,8.91
2023-04-07T06:24:16.997Z,8.94
2023-04-07T06:26:46.674Z,9.04
2023-04-07T06:29:14.119Z,8.95
2023-04-07T06:31:41.591Z,8.86
2023-04-07T06:34:09.033Z,9.16
2023-04-07T06:36:36.603Z,9.11
2023-04-07T06:39:04.134Z,9.13
2023-04-07T06:41:31.775Z,9.23
2023-04-07T06:43:59.155Z,9.13
2023-04-07T06:46:26.792Z,9.22
2023-04-07T06:48:54.255Z,9.17
2023-04-07T06:51:21.604Z,9.35
2023-04-07T06:53:49.639Z,9.40
2023-04-07T06:56:17.353Z,9.59
2023-04-07T06:58:44.720Z,9.64
2023-04-07T07:01:12.179Z,9.59
2023-04-07T07:03:39.760Z,9.59
2023-04-07T07:06:07.417Z,9.61
2023-04-07T07:08:35.261Z,9.64
2023-04-07T07:11:02.727Z,9.66
2023-04-07T07:13:30.181Z,9.59
2023-04-07T07:15:57.576Z,9.63
2023-04-07T07:18:25.017Z,9.50
2023-04-07T07:20:52.502Z,9.66
2023-04-07T07:23:19.899Z,9.76
2023-04-07T07:25:47.386Z,9.72
2023-04-07T07:28:14.902Z,9.78
2023-04-07T07:30:42.342Z,9.71
2023-04-07T07:33:10.027Z,9.48
2023-04-07T07:35:38.427Z,9.37
2023-04-07T07:38:05.861Z,9.48
2023-04-07T07:40:33.433Z,9.48
2023-04-07T07:43:03.709Z,9.37
2023-04-07T07:45:31.191Z,9.35
2023-04-07T07:47:58.760Z,9.49
2023-04-07T07:50:26.278Z,9.35
2023-04-07T07:52:53.793Z,9.39
2023-04-07T07:55:21.499Z,9.56
2023-04-07T07:57:49.109Z,9.39
2023-04-07T08:00:16.979Z,9.53
2023-04-07T08:02:44.565Z,9.52
2023-04-07T08:05:12.853Z,9.46
2023-04-07T08:07:40.291Z,9.62
2023-04-07T08:10:07.958Z,9.84
2023-04-07T08:12:35.754Z,9.76
2023-04-07T08:15:08.118Z,9.78
2023-04-07T08:17:35.820Z,9.64
2023-04-07T08:20:03.713Z,9.93
2023-04-07T08:22:31.403Z,9.99
2023-04-07T08:24:58.812Z,9.87
2023-04-07T08:27:26.162Z,10.02
2023-04-07T08:30:03.660Z,10.04
2023-04-07T08:32:37.618Z,9.76
2023-04-07T08:35:05.424Z,9.89
2023-04-07T08:37:33.862Z,10.06
2023-04-07T08:40:02.033Z,10.11
2023-04-07T08:42:30.755Z,10.11
2023-04-07T08:45:00.903Z,10.10
2023-04-07T08:47:29.168Z,10.23
2023-04-07T08:49:58.517Z,10.27
2023-04-07T08:52:29.072Z,10.30
2023-04-07T08:54:58.204Z,10.44
2023-04-07T08:57:25.679Z,10.43
2023-04-07T08:59:53.200Z,10.31
2023-04-07T09:02:21.334Z,10.51
2023-04-07T09:04:49.219Z,10.81
2023-04-07T09:07:16.594Z,10.77
2023-04-07T09:09:44.023Z,10.92
2023-04-07T09:12:11.500Z,10.93
2023-04-07T09:14:38.930Z,11.04
2023-04-07T09:17:06.337Z,10.91
2023-04-07T09:19:34.127Z,10.93
2023-04-07T09:22:01.608Z,10.78
2023-04-07T09:24:31.535Z,10.70
2023-04-07T09:27:13.939Z,10.59
2023-04-07T09:29:44.180Z,10.56
2023-04-07T09:32:12.361Z,10.50
2023-04-07T09:34:41.209Z,10.49
2023-04-07T09:37:09.546Z,10.47
2023-04-07T09:39:57.227Z,10.48
2023-04-07T09:42:25.987Z,10.47
2023-04-07T09:44:53.723Z,10.71
2023-04-07T09:47:27.016Z,10.74
2023-04-07T09:49:55.116Z,10.80
2023-04-07T09:52:48.870Z,10.85
2023-04-07T09:55:16.882Z,10.83
2023-04-07T09:57:45.352Z,11.05
2023-04-07T10:00:12.980Z,10.95
2023-04-07T10:02:40.598Z,10.85
2023-04-07T10:05:09.177Z,10.70
2023-04-07T10:07:36.612Z,10.57
2023-04-07T10:10:04.824Z,10.46
2023-04-07T10:12:35.336Z,10.47
2023-04-07T10:15:03.214Z,10.75
2023-04-07T10:17:31.646Z,10.79
2023-04-07T10:19:59.792Z,10.69
2023-04-07T10:22:28.766Z,10.63
2023-04-07T10:25:01.733Z,10.64
2023-04-07T10:27:32.321Z,10.61
2023-04-07T10:30:00.038Z,10.59
2023-04-07T10:32:27.579Z,10.43
2023-04-07T10:34:55.077Z,10.59
2023-04-07T10:37:23.656Z,10.55
2023-04-07T10:39:52.001Z,10.32
2023-04-07T10:42:38.760Z,10.50
2023-04-07T10:45:06.679Z,10.30
2023-04-07T10:47:34.261Z,10.33
2023-04-07T10:50:13.746Z,10.58
2023-04-07T10:52:41.320Z,10.54
2023-04-07T10:55:27.617Z,10.72
2023-04-07T10:58:13.841Z,10.72
2023-04-07T11:00:41.273Z,10.76
2023-04-07T11:03:13.208Z,11.05
2023-04-07T11:05:41.586Z,10.71
2023-04-07T11:08:09.268Z,11.17
2023-04-07T11:10:36.878Z,11.20
2023-04-07T11:13:08.145Z,11.58
2023-04-07T11:15:40.260Z,11.96
2023-04-07T11:18:08.444Z,11.73
2023-04-07T11:20:46.781Z,11.96
2023-04-07T11:23:14.714Z,11.67
2023-04-07T11:25:46.495Z,11.63
2023-04-07T11:28:14.381Z,11.82
2023-04-07T11:30:49.892Z,11.56
2023-04-07T11:33:18.635Z,11.39
2023-04-07T11:35:52.851Z,11.37
2023-04-07T11:38:21.149Z,11.54
2023-04-07T11:40:48.784Z,11.69
2023-04-07T11:43:17.259Z,11.64
2023-04-07T11:45:44.919Z,11.86
2023-04-07T11:48:28.182Z,12.05
2023-04-07T11:50:55.570Z,12.01
2023-04-07T11:53:27.060Z,11.94
2023-04-07T11:56:20.509Z,11.96
2023-04-07T11:58:51.695Z,11.92
2023-04-07T12:01:19.504Z,11.81
2023-04-07T12:04:01.850Z,12.10
2023-04-07T12:06:35.170Z,12.18
2023-04-07T12:09:03.574Z,11.95
2023-04-07T12:11:31.891Z,11.83
2023-04-07T12:13:59.633Z,11.96
2023-04-07T12:16:27.707Z,11.79
2023-04-07T12:18:55.347Z,11.59
2023-04-07T12:21:22.786Z,11.59
2023-04-07T12:23:50.825Z,11.72
2023-04-07T12:26:19.358Z,11.80
2023-04-07T12:28:48.575Z,12.16
2023-04-07T12:31:15.998Z,11.84
2023-04-07T12:33:43.449Z,11.88
2023-04-07T12:36:11.249Z,11.79
2023-04-07T12:38:38.765Z,11.69
2023-04-07T12:41:06.254Z,11.55
2023-04-07T12:43:33.688Z,11.42
2023-04-07T12:46:01.239Z,11.38
2023-04-07T12:48:28.756Z,11.44
2023-04-07T12:50:56.577Z,11.36
2023-04-07T12:53:24.191Z,11.61
2023-04-07T12:55:51.800Z,11.58
2023-04-07T12:58:19.579Z,11.41
2023-04-07T13:00:48.667Z,11.47
2023-04-07T13:03:16.252Z,11.60
2023-04-07T13:05:43.770Z,11.36
2023-04-07T13:08:11.146Z,11.28
2023-04-07T13:10:38.521Z,11.22
2023-04-07T13:13:06.022Z,11.03
2023-04-07T13:15:33.502Z,10.90
2023-04-07T13:18:00.944Z,11.05
2023-04-07T13:20:30.229Z,10.99
2023-04-07T13:23:07.749Z,10.71
2023-04-07T13:25:37.605Z,10.86
2023-04-07T13:28:05.854Z,10.77
2023-04-07T13:30:33.415Z,10.88
2023-04-07T13:33:01.005Z,10.93
2023-04-07T13:35:30.314Z,10.80
2023-04-07T13:37:57.892Z,11.01
2023-04-07T13:40:25.324Z,10.93
2023-04-07T13:42:52.698Z,10.95
2023-04-07T13:45:20.190Z,11.08
2023-04-07T13:47:47.644Z,11.33
2023-04-07T13:50:15.796Z,11.24
2023-04-07T13:52:43.334Z,11.44
2023-04-07T13:55:10.927Z,11.52
2023-04-07T13:57:38.378Z,11.39
2023-04-07T14:00:07.345Z,11.28
2023-04-07T14:02:35.654Z,11.39
2023-04-07T14:05:03.197Z,11.35
2023-04-07T14:07:30.691Z,11.39
2023-04-07T14:09:58.431Z,11.62
2023-04-07T14:12:25.827Z,11.49
2023-04-07T14:14:54.764Z,11.52
2023-04-07T14:17:22.169Z,11.37
2023-04-07T14:19:49.587Z,11.38
2023-04-07T14:22:17.026Z,11.54
2023-04-07T14:24:45.234Z,11.50
2023-04-07T14:27:14.106Z,11.34
2023-04-07T14:29:41.726Z,11.29
2023-04-07T14:32:09.284Z,11.19
2023-04-07T14:34:36.738Z,11.44
2023-04-07T14:37:04.157Z,11.49
2023-04-07T14:39:31.709Z,11.29
2023-04-07T14:41:59.235Z,11.19
2023-04-07T14:44:28.985Z,11.33
2023-04-07T14:46:56.512Z,11.23
2023-04-07T14:49:25.155Z,11.27
2023-04-07T14:51:53.433Z,11.16
2023-04-07T14:54:21.673Z,11.17
2023-04-07T14:56:49.223Z,11.27
2023-04-07T14:59:16.655Z,11.13
2023-04-07T15:01:44.180Z,10.76
2023-04-07T15:04:11.776Z,10.74
2023-04-07T15:06:41.514Z,10.66
2023-04-07T15:09:08.918Z,10.71
2023-04-07T15:11:36.432Z,10.53
2023-04-07T15:14:04.198Z,10.74
2023-04-07T15:16:31.653Z,10.87
2023-04-07T15:18:59.169Z,10.76
2023-04-07T15:21:27.733Z,10.62
2023-04-07T15:23:55.076Z,10.57
2023-04-07T15:26:22.515Z,10.49
2023-04-07T15:28:49.946Z,10.31
2023-04-07T15:31:17.529Z,10.30
2023-04-07T15:33:46.282Z,10.20
2023-04-07T15:36:13.761Z,10.34
2023-04-07T15:38:41.286Z,10.29
2023-04-07T15:41:08.809Z,10.26
2023-04-07T15:43:36.825Z,10.32
2023-04-07T15:46:04.288Z,10.30
2023-04-07T15:48:31.728Z,10.26
2023-04-07T15:50:59.152Z,10.28
2023-04-07T15:53:26.635Z,10.16
2023-04-07T15:55:55.947Z,10.22
2023-04-07T15:58:23.317Z,10.17
2023-04-07T16:00:50.847Z,10.39
2023-04-07T16:03:18.413Z,10.17
2023-04-07T16:05:45.951Z,10.22
2023-04-07T16:08:13.987Z,10.33
2023-04-07T16:10:41.509Z,10.30
2023-04-07T16:13:08.953Z,10.47
2023-04-07T16:15:40.488Z,10.43
2023-04-07T16:18:10.005Z,10.44
2023-04-07T16:20:37.478Z,10.27
2023-04-07T16:23:05.148Z,10.33
2023-04-07T16:25:32.608Z,10.45
2023-04-07T16:28:00.075Z,10.54
2023-04-07T16:30:27.533Z,10.36
2023-04-07T16:32:54.990Z,10.34
2023-04-07T16:35:22.519Z,10.38
2023-04-07T16:37:50.456Z,10.26
2023-04-07T16:40:17.844Z,10.06
2023-04-07T16:42:45.207Z,10.26
2023-04-07T16:45:12.668Z,10.20
2023-04-07T16:47:44.199Z,10.35
2023-04-07T16:50:11.876Z,10.28
2023-04-07T16:52:40.337Z,10.42
2023-04-07T16:55:08.014Z,10.42
2023-04-07T16:57:35.493Z,10.41
2023-04-07T17:00:04.126Z,10.39
2023-04-07T17:02:31.755Z,10.25
2023-04-07T17:04:59.256Z,10.22
2023-04-07T17:07:27.245Z,10.30
2023-04-07T17:09:54.817Z,10.33
2023-04-07T17:12:22.726Z,10.30
2023-04-07T17:14:50.157Z,10.34
2023-04-07T17:17:17.591Z,10.49
2023-04-07T17:19:45.015Z,10.48
2023-04-07T17:22:12.434Z,10.45
2023-04-07T17:24:39.784Z,10.49
2023-04-07T17:27:07.220Z,10.23
2023-04-07T17:29:34.622Z,10.45
2023-04-07T17:32:02.625Z,10.40
2023-04-07T17:34:30.078Z,10.50
2023-04-07T17:36:57.566Z,10.56
2023-04-07T17:39:24.950Z,10.45
2023-04-07T17:41:52.383Z,10.46
2023-04-07T17:44:19.792Z,10.32
2023-04-07T17:46:47.318Z,10.23
2023-04-07T17:49:14.989Z,10.16
2023-04-07T17:51:42.549Z,10.30
2023-04-07T17:54:09.934Z,10.36
2023-04-07T17:56:37.991Z,10.29
2023-04-07T17:59:05.713Z,10.18
2023-04-07T18:01:33.161Z,10.08
2023-04-07T18:04:00.814Z,10.05
2023-04-07T18:06:28.823Z,10.07
2023-04-07T18:08:56.608Z,10.04
2023-04-07T18:11:24.008Z,9.95
2023-04-07T18:13:51.656Z,9.95
2023-04-07T18:16:22.048Z,10.01
2023-04-07T18:18:50.086Z,10.10
2023-04-07T18:21:17.488Z,10.02
2023-04-07T18:23:44.894Z,10.09
2023-04-07T18:26:12.336Z,10.11
2023-04-07T18:28:39.768Z,10.02
2023-04-07T18:31:08.558Z,10.10
2023-04-07T18:33:36.653Z,10.18
2023-04-07T18:36:04.915Z,10.11
2023-04-07T18:38:32.362Z,10.16
2023-04-07T18:41:00.185Z,10.12
2023-04-07T18:43:28.003Z,10.19
2023-04-07T18:45:55.444Z,10.16
2023-04-07T18:48:22.832Z,10.14
2023-04-07T18:50:53.723Z,10.23
2023-04-07T18:53:21.740Z,10.25
2023-04-07T18:55:49.491Z,10.33
2023-04-07T18:58:16.886Z,10.27
2023-04-07T19:00:44.959Z,10.28
2023-04-07T19:03:12.462Z,10.31
2023-04-07T19:05:41.832Z,10.35
2023-04-07T19:08:09.771Z,10.29
2023-04-07T19:10:37.181Z,10.13
2023-04-07T19:13:04.999Z,9.96
2023-04-07T19:15:34.262Z,9.88
2023-04-07T19:18:04.974Z,9.98
2023-04-07T19:20:33.757Z,10.01
2023-04-07T19:23:01.623Z,10.00
2023-04-07T19:25:29.806Z,9.94
2023-04-07T19:27:57.721Z,9.97
2023-04-07T19:30:25.598Z,10.12
2023-04-07T19:32:53.319Z,10.14
2023-04-07T19:35:21.084Z,10.07
2023-04-07T19:37:48.581Z,10.03
2023-04-07T19:40:16.120Z,9.84
2023-04-07T19:42:43.496Z,9.85
2023-04-07T19:45:11.424Z,9.88
2023-04-07T19:47:39.028Z,9.89
2023-04-07T19:50:06.824Z,10.01
2023-04-07T19:52:34.213Z,9.99
2023-04-07T19:55:04.251Z,9.88
2023-04-07T19:57:32.309Z,9.82
2023-04-07T19:59:59.731Z,9.82
2023-04-07T20:02:27.989Z,9.81
2023-04-07T20:04:55.538Z,9.83
2023-04-07T20:07:23.006Z,9.83
2023-04-07T20:09:51.434Z,9.74
2023-04-07T20:12:18.955Z,9.73
2023-04-07T20:14:46.356Z,9.75
2023-04-07T20:17:13.711Z,9.76
2023-04-07T20:19:41.658Z,9.82
2023-04-07T20:22:09.540Z,9.87
2023-04-07T20:24:36.962Z,9.99
2023-04-07T20:27:04.473Z,10.04
2023-04-07T20:29:31.936Z,10.01
2023-04-07T20:31:59.341Z,10.01
2023-04-07T20:34:26.818Z,10.01
2023-04-07T20:36:54.490Z,10.06
2023-04-07T20:39:22.063Z,10.05
2023-04-07T20:41:49.515Z,9.87
2023-04-07T20:44:17.035Z,10.02
2023-04-07T20:46:44.932Z,10.08
2023-04-07T20:49:12.461Z,9.95
2023-04-07T20:51:40.042Z,10.07
2023-04-07T20:54:07.811Z,10.04
2023-04-07T20:56:35.598Z,10.04
2023-04-07T20:59:03.030Z,9.99
2023-04-07T21:01:30.545Z,9.90
2023-04-07T21:03:59.716Z,9.89
2023-04-07T21:06:27.145Z,9.87
2023-04-07T21:08:54.537Z,9.81
2023-04-07T21:11:21.976Z,9.93
2023-04-07T21:13:49.440Z,9.99
2023-04-07T21:16:17.050Z,10.01
2023-04-07T21:18:44.524Z,9.92
2023-04-07T21:21:12.036Z,9.89
2023-04-07T21:23:40.817Z,9.89
2023-04-07T21:26:08.315Z,9.88
2023-04-07T21:28:35.925Z,9.85
2023-04-07T21:31:04.433Z,9.82
2023-04-07T21:33:31.959Z,10.01
2023-04-07T21:36:00.701Z,10.08
2023-04-07T21:38:28.236Z,10.08
2023-04-07T21:40:56.436Z,9.90
2023-04-07T21:43:24.131Z,9.95
2023-04-07T21:45:52.297Z,10.00
2023-04-07T21:48:20.888Z,10.00
2023-04-07T21:50:48.294Z,9.99
2023-04-07T21:53:15.666Z,9.98
2023-04-07T21:55:43.031Z,9.99
2023-04-07T21:58:11.069Z,9.81
2023-04-07T22:00:39.197Z,9.79
2023-04-07T22:03:07.706Z,9.84
2023-04-07T22:05:35.470Z,9.83
2023-04-07T22:08:03.167Z,9.84
2023-04-07T22:10:30.668Z,9.82
2023-04-07T22:12:58.193Z,9.87
2023-04-07T22:15:25.643Z,9.92
2023-04-07T22:17:53.188Z,9.99
2023-04-07T22:20:20.669Z,9.99
2023-04-07T22:22:48.126Z,9.94
2023-04-07T22:25:15.521Z,9.89
2023-04-07T22:27:42.977Z,9.92
2023-04-07T22:30:10.934Z,9.91
2023-04-07T22:32:38.440Z,9.90
2023-04-07T22:35:06.115Z,9.86
2023-04-07T22:37:33.587Z,9.90
2023-04-07T22:40:01.094Z,9.96
2023-04-07T22:42:28.537Z,10.01
2023-04-07T22:44:55.946Z,10.13
2023-04-07T22:47:23.432Z,10.20
2023-04-07T22:49:50.901Z,10.07
2023-04-07T22:52:18.376Z,10.00
2023-04-07T22:54:45.930Z,9.88
2023-04-07T22:57:13.324Z,9.84
2023-04-07T22:59:41.042Z,9.79
2023-04-07T23:02:08.514Z,9.78
2023-04-07T23:04:35.944Z,9.92
2023-04-07T23:07:03.329Z,9.88
2023-04-07T23:09:30.694Z,9.81
2023-04-07T23:11:58.070Z,9.86
2023-04-07T23:14:25.482Z,9.81
2023-04-07T23:16:54.426Z,9.76
2023-04-07T23:19:22.009Z,9.61
2023-04-07T23:21:49.409Z,9.58
2023-04-07T23:24:16.805Z,9.35
2023-04-07T23:26:44.280Z,9.29
2023-04-07T23:29:11.972Z,9.37
2023-04-07T23:31:39.448Z,9.32
2023-04-07T23:34:07.093Z,9.09
2023-04-07T23:36:34.564Z,9.08
2023-04-07T23:39:02.353Z,9.10
2023-04-07T23:41:29.732Z,8.89
2023-04-07T23:43:57.236Z,8.87
2023-04-07T23:46:24.759Z,8.83
2023-04-07T23:48:52.397Z,8.77
2023-04-07T23:51:19.980Z,8.76
2023-04-07T23:53:47.356Z,8.72
2023-04-07T23:56:14.777Z,8.70
2023-04-07T23:58:42.153Z,8.49
